createdAt,value
2017-07-21T00:00:24.726Z,0
2017-07-21T00:01:24.736Z,0
2017-07-21T00:02:24.824Z,0
2017-07-21T00:03:24.728Z,0
2017-07-21T00:04:24.426Z,0
2017-07-21T00:05:24.815Z,0
2017-07-21T00:06:24.873Z,0
2017-07-21T00:07:24.567Z,0
2017-07-21T00:08:24.712Z,0
2017-07-21T00:09:24.823Z,0
2017-07-21T00:10:24.712Z,0
2017-07-21T00:11:24.716Z,0
2017-07-21T00:12:24.507Z,0
2017-07-21T00:13:24.710Z,0
2017-07-21T00:14:24.406Z,0
2017-07-21T00:15:24.703Z,0
2017-07-21T00:16:24.494Z,0
2017-07-21T00:17:24.805Z,0
2017-07-21T00:18:24.700Z,0
2017-07-21T00:19:24.392Z,0
2017-07-21T00:20:24.085Z,0
2017-07-21T00:21:24.497Z,0
2017-07-21T00:22:24.951Z,0
2017-07-21T00:23:24.788Z,0
2017-07-21T00:24:24.834Z,0
2017-07-21T00:25:24.687Z,0
2017-07-21T00:26:24.689Z,0
2017-07-21T00:27:24.680Z,0
2017-07-21T00:28:24.680Z,0
2017-07-21T00:29:24.682Z,0
2017-07-21T00:30:24.686Z,0
2017-07-21T00:31:24.784Z,0
2017-07-21T00:32:24.672Z,0
2017-07-21T00:33:24.679Z,0
2017-07-21T00:34:24.668Z,0
2017-07-21T00:35:24.661Z,0
2017-07-21T00:36:24.765Z,0
2017-07-21T00:37:24.696Z,0
2017-07-21T00:38:24.670Z,0
2017-07-21T00:39:24.854Z,0
2017-07-21T00:40:24.354Z,0
2017-07-21T00:41:24.658Z,0
2017-07-21T00:42:24.660Z,0
2017-07-21T00:43:24.656Z,0
2017-07-21T00:44:24.655Z,0
2017-07-21T00:45:24.701Z,0
2017-07-21T00:46:24.655Z,0
2017-07-21T00:47:24.646Z,0
2017-07-21T00:48:24.646Z,0
2017-07-21T00:49:24.033Z,0
2017-07-21T00:50:24.645Z,0
2017-07-21T00:51:24.684Z,0
2017-07-21T00:52:24.332Z,0
2017-07-21T00:53:24.637Z,0
2017-07-21T00:54:24.630Z,0
2017-07-21T00:55:24.630Z,0
2017-07-21T00:56:24.836Z,0
2017-07-21T00:57:24.626Z,0
2017-07-21T00:58:24.627Z,0
2017-07-21T00:59:24.752Z,0
2017-07-21T01:00:24.318Z,0
2017-07-21T01:01:24.319Z,0
2017-07-21T01:02:24.617Z,0
2017-07-21T01:03:24.715Z,0
2017-07-21T01:04:24.617Z,0
2017-07-21T01:05:24.305Z,0
2017-07-21T01:06:24.318Z,0
2017-07-21T01:07:24.611Z,0
2017-07-21T01:08:24.767Z,0
2017-07-21T01:09:24.611Z,0
2017-07-21T01:10:24.306Z,0
2017-07-21T01:11:24.323Z,0
2017-07-21T01:12:24.330Z,0
2017-07-21T01:13:24.704Z,0
2017-07-21T01:14:23.989Z,0
2017-07-21T01:15:24.299Z,0
2017-07-21T01:16:24.287Z,0
2017-07-21T01:17:24.589Z,0
2017-07-21T01:18:24.587Z,0
2017-07-21T01:19:24.585Z,0
2017-07-21T01:20:24.587Z,0
2017-07-21T01:21:24.382Z,0
2017-07-21T01:22:23.770Z,0
2017-07-21T01:23:24.583Z,0
2017-07-21T01:24:24.579Z,0
2017-07-21T01:25:24.423Z,0
2017-07-21T01:26:24.517Z,0
2017-07-21T01:27:24.371Z,0
2017-07-21T01:28:24.276Z,0
2017-07-21T01:29:24.565Z,0
2017-07-21T01:30:24.267Z,0
2017-07-21T01:31:24.564Z,0
2017-07-21T01:32:24.258Z,0
2017-07-21T01:33:24.553Z,0
2017-07-21T01:34:23.973Z,0
2017-07-21T01:35:23.948Z,0
2017-07-21T01:36:23.946Z,0
2017-07-21T01:37:24.255Z,0
2017-07-21T01:38:24.556Z,0
2017-07-21T01:39:24.545Z,0
2017-07-21T01:40:24.549Z,0
2017-07-21T01:41:24.552Z,0
2017-07-21T01:42:24.700Z,0
2017-07-21T01:43:24.542Z,0
2017-07-21T01:44:24.535Z,0
2017-07-21T01:45:24.238Z,0
2017-07-21T01:46:24.531Z,0
2017-07-21T01:47:24.630Z,0
2017-07-21T01:48:23.924Z,0
2017-07-21T01:49:24.228Z,0
2017-07-21T01:50:24.323Z,0
2017-07-21T01:51:24.323Z,0
2017-07-21T01:52:24.671Z,0
2017-07-21T01:53:24.523Z,0
2017-07-21T01:54:24.514Z,0
2017-07-21T01:55:24.548Z,0
2017-07-21T01:56:24.622Z,0
2017-07-21T01:57:24.215Z,0
2017-07-21T01:58:24.617Z,0
2017-07-21T01:59:24.303Z,0
2017-07-21T02:00:24.533Z,0
2017-07-21T02:01:23.894Z,0
2017-07-21T02:02:24.514Z,0
2017-07-21T02:03:24.657Z,0
2017-07-21T02:04:23.893Z,0
2017-07-21T02:05:24.509Z,0
2017-07-21T02:06:24.193Z,0
2017-07-21T02:07:24.190Z,0
2017-07-21T02:08:24.341Z,0
2017-07-21T02:09:24.350Z,0
2017-07-21T02:10:24.187Z,0
2017-07-21T02:11:24.489Z,0
2017-07-21T02:12:24.489Z,0
2017-07-21T02:13:24.486Z,0
2017-07-21T02:14:24.478Z,0
2017-07-21T02:15:24.476Z,0
2017-07-21T02:16:24.482Z,0
2017-07-21T02:17:24.486Z,0
2017-07-21T02:18:24.174Z,0
2017-07-21T02:19:24.473Z,0
2017-07-21T02:20:24.730Z,0
2017-07-21T02:21:24.166Z,0
2017-07-21T02:22:24.165Z,0
2017-07-21T02:23:24.569Z,0
2017-07-21T02:24:24.259Z,0
2017-07-21T02:25:24.464Z,0
2017-07-21T02:26:24.463Z,0
2017-07-21T02:27:23.849Z,0
2017-07-21T02:28:24.551Z,0
2017-07-21T02:29:24.148Z,0
2017-07-21T02:30:24.601Z,0
2017-07-21T02:31:24.161Z,0
2017-07-21T02:32:24.579Z,0
2017-07-21T02:33:24.564Z,0
2017-07-21T02:34:24.443Z,0
2017-07-21T02:35:23.829Z,0
2017-07-21T02:36:24.444Z,0
2017-07-21T02:37:24.133Z,0
2017-07-21T02:38:24.442Z,0
2017-07-21T02:39:24.534Z,0
2017-07-21T02:40:24.436Z,0
2017-07-21T02:41:24.430Z,0
2017-07-21T02:42:24.432Z,0
2017-07-21T02:43:24.430Z,0
2017-07-21T02:44:24.423Z,0
2017-07-21T02:45:23.821Z,0
2017-07-21T02:46:24.117Z,0
2017-07-21T02:47:24.112Z,0
2017-07-21T02:48:24.107Z,0
2017-07-21T02:49:24.417Z,0
2017-07-21T02:50:24.409Z,0
2017-07-21T02:51:24.113Z,0
2017-07-21T02:52:24.122Z,0
2017-07-21T02:53:24.200Z,0
2017-07-21T02:54:24.407Z,0
2017-07-21T02:55:24.100Z,0
2017-07-21T02:56:24.502Z,0
2017-07-21T02:57:23.793Z,0
2017-07-21T02:58:24.402Z,0
2017-07-21T02:59:24.086Z,0
2017-07-21T03:00:23.785Z,0
2017-07-21T03:01:24.091Z,0
2017-07-21T03:02:24.391Z,0
2017-07-21T03:03:24.086Z,0
2017-07-21T03:04:24.084Z,0
2017-07-21T03:05:24.083Z,0
2017-07-21T03:06:24.224Z,0
2017-07-21T03:07:24.385Z,0
2017-07-21T03:08:24.368Z,0
2017-07-21T03:09:24.103Z,0
2017-07-21T03:10:24.065Z,0
2017-07-21T03:11:24.376Z,0
2017-07-21T03:12:24.476Z,0
2017-07-21T03:13:24.369Z,0
2017-07-21T03:14:24.364Z,0
2017-07-21T03:15:24.373Z,0
2017-07-21T03:16:23.753Z,0
2017-07-21T03:17:24.061Z,0
2017-07-21T03:18:24.510Z,0
2017-07-21T03:19:23.761Z,0
2017-07-21T03:20:24.457Z,0
2017-07-21T03:21:23.737Z,0
2017-07-21T03:22:23.733Z,0
2017-07-21T03:23:24.042Z,0
2017-07-21T03:24:23.932Z,0
2017-07-21T03:25:23.731Z,0
2017-07-21T03:26:24.032Z,0
2017-07-21T03:27:23.726Z,0
2017-07-21T03:28:23.724Z,0
2017-07-21T03:29:24.038Z,0
2017-07-21T03:30:23.740Z,0
2017-07-21T03:31:24.029Z,0
2017-07-21T03:32:23.719Z,0
2017-07-21T03:33:24.329Z,0
2017-07-21T03:34:24.483Z,0
2017-07-21T03:35:24.476Z,0
2017-07-21T03:36:24.353Z,0
2017-07-21T03:37:24.018Z,0
2017-07-21T03:38:24.319Z,0
2017-07-21T03:39:24.318Z,0
2017-07-21T03:40:24.109Z,0
2017-07-21T03:41:24.332Z,0
2017-07-21T03:42:24.408Z,0
2017-07-21T03:43:24.408Z,0
2017-07-21T03:44:24.304Z,0
2017-07-21T03:45:24.099Z,0
2017-07-21T03:46:24.294Z,0
2017-07-21T03:47:24.302Z,0
2017-07-21T03:48:24.293Z,0
2017-07-21T03:49:24.294Z,0
2017-07-21T03:50:24.289Z,0
2017-07-21T03:51:24.294Z,0
2017-07-21T03:52:24.290Z,0
2017-07-21T03:53:24.286Z,0
2017-07-21T03:54:24.286Z,0
2017-07-21T03:55:24.277Z,5
2017-07-21T03:56:24.278Z,5
2017-07-21T03:57:23.969Z,5
2017-07-21T03:58:24.276Z,5
2017-07-21T03:59:23.969Z,5
2017-07-21T04:00:24.276Z,5
2017-07-21T04:01:24.272Z,5
2017-07-21T04:02:23.953Z,5
2017-07-21T04:03:24.366Z,5
2017-07-21T04:04:24.277Z,5
2017-07-21T04:05:24.262Z,5
2017-07-21T04:06:24.417Z,5
2017-07-21T04:07:24.056Z,5
2017-07-21T04:08:24.245Z,10
2017-07-21T04:09:24.248Z,10
2017-07-21T04:10:24.258Z,10
2017-07-21T04:11:24.245Z,10
2017-07-21T04:12:23.939Z,10
2017-07-21T04:13:24.250Z,10
2017-07-21T04:14:24.342Z,10
2017-07-21T04:15:24.248Z,15
2017-07-21T04:16:24.235Z,15
2017-07-21T04:17:24.240Z,15
2017-07-21T04:18:24.229Z,15
2017-07-21T04:19:24.333Z,15
2017-07-21T04:20:24.229Z,15
2017-07-21T04:21:24.226Z,15
2017-07-21T04:22:24.326Z,20
2017-07-21T04:23:24.222Z,20
2017-07-21T04:24:24.370Z,20
2017-07-21T04:25:24.314Z,20
2017-07-21T04:26:24.212Z,20
2017-07-21T04:27:24.216Z,25
2017-07-21T04:28:24.213Z,25
2017-07-21T04:29:23.901Z,25
2017-07-21T04:30:23.924Z,30
2017-07-21T04:31:24.199Z,30
2017-07-21T04:32:24.198Z,30
2017-07-21T04:33:24.204Z,30
2017-07-21T04:34:24.235Z,35
2017-07-21T04:35:24.346Z,35
2017-07-21T04:36:24.440Z,35
2017-07-21T04:37:24.194Z,40
2017-07-21T04:38:24.191Z,40
2017-07-21T04:39:24.294Z,40
2017-07-21T04:40:23.889Z,45
2017-07-21T04:41:24.028Z,45
2017-07-21T04:42:24.181Z,45
2017-07-21T04:43:24.191Z,50
2017-07-21T04:44:24.273Z,50
2017-07-21T04:45:24.174Z,50
2017-07-21T04:46:23.867Z,50
2017-07-21T04:47:24.178Z,55
2017-07-21T04:48:24.172Z,55
2017-07-21T04:49:24.171Z,55
2017-07-21T04:50:23.656Z,60
2017-07-21T04:51:24.169Z,60
2017-07-21T04:52:23.963Z,60
2017-07-21T04:53:24.262Z,60
2017-07-21T04:54:24.169Z,65
2017-07-21T04:55:23.860Z,65
2017-07-21T04:56:24.159Z,65
2017-07-21T04:57:24.051Z,65
2017-07-21T04:58:23.999Z,65
2017-07-21T04:59:24.157Z,70
2017-07-21T05:00:23.852Z,70
2017-07-21T05:01:24.250Z,75
2017-07-21T05:02:23.534Z,80
2017-07-21T05:03:24.248Z,85
2017-07-21T05:04:24.152Z,90
2017-07-21T05:05:23.840Z,95
2017-07-21T05:06:23.835Z,100
2017-07-21T05:07:23.843Z,100
2017-07-21T05:08:24.301Z,105
2017-07-21T05:09:24.143Z,105
2017-07-21T05:10:24.139Z,110
2017-07-21T05:11:24.141Z,110
2017-07-21T05:12:24.140Z,115
2017-07-21T05:13:24.139Z,115
2017-07-21T05:14:24.137Z,120
2017-07-21T05:15:24.136Z,125
2017-07-21T05:16:24.143Z,125
2017-07-21T05:17:24.134Z,130
2017-07-21T05:18:24.224Z,135
2017-07-21T05:19:24.132Z,135
2017-07-21T05:20:24.130Z,135
2017-07-21T05:21:23.852Z,145
2017-07-21T05:22:23.821Z,155
2017-07-21T05:23:24.121Z,170
2017-07-21T05:24:24.123Z,175
2017-07-21T05:25:23.971Z,185
2017-07-21T05:26:24.129Z,185
2017-07-21T05:27:23.809Z,190
2017-07-21T05:28:24.119Z,195
2017-07-21T05:29:24.314Z,200
2017-07-21T05:30:24.119Z,200
2017-07-21T05:31:23.915Z,210
2017-07-21T05:32:24.227Z,205
2017-07-21T05:33:23.812Z,210
2017-07-21T05:34:24.118Z,210
2017-07-21T05:35:24.121Z,210
2017-07-21T05:36:24.222Z,210
2017-07-21T05:37:23.812Z,210
2017-07-21T05:38:24.119Z,210
2017-07-21T05:39:24.118Z,215
2017-07-21T05:40:23.808Z,220
2017-07-21T05:41:23.808Z,220
2017-07-21T05:42:23.809Z,230
2017-07-21T05:43:24.221Z,235
2017-07-21T05:44:24.116Z,240
2017-07-21T05:45:24.121Z,255
2017-07-21T05:46:24.115Z,270
2017-07-21T05:47:23.758Z,280
2017-07-21T05:48:24.062Z,290
2017-07-21T05:49:24.113Z,295
2017-07-21T05:50:23.816Z,290
2017-07-21T05:51:24.134Z,290
2017-07-21T05:52:23.807Z,295
2017-07-21T05:53:24.225Z,295
2017-07-21T05:54:24.273Z,305
2017-07-21T05:55:24.123Z,310
2017-07-21T05:56:24.121Z,320
2017-07-21T05:57:23.512Z,325
2017-07-21T05:58:24.230Z,335
2017-07-21T05:59:23.819Z,345
2017-07-21T06:00:24.129Z,350
2017-07-21T06:01:24.127Z,350
2017-07-21T06:02:23.823Z,350
2017-07-21T06:03:23.994Z,360
2017-07-21T06:04:24.145Z,365
2017-07-21T06:05:24.289Z,375
2017-07-21T06:06:24.144Z,380
2017-07-21T06:07:24.137Z,380
2017-07-21T06:08:24.242Z,380
2017-07-21T06:09:23.830Z,385
2017-07-21T06:10:23.833Z,400
2017-07-21T06:11:24.150Z,405
2017-07-21T06:12:24.242Z,410
2017-07-21T06:13:24.151Z,420
2017-07-21T06:14:24.251Z,420
2017-07-21T06:15:24.148Z,430
2017-07-21T06:16:23.847Z,435
2017-07-21T06:17:24.272Z,450
2017-07-21T06:18:24.162Z,455
2017-07-21T06:19:24.158Z,455
2017-07-21T06:20:24.164Z,460
2017-07-21T06:21:24.165Z,475
2017-07-21T06:22:24.168Z,485
2017-07-21T06:23:24.269Z,490
2017-07-21T06:24:24.186Z,505
2017-07-21T06:25:24.169Z,505
2017-07-21T06:26:23.872Z,505
2017-07-21T06:27:24.187Z,500
2017-07-21T06:28:24.288Z,500
2017-07-21T06:29:24.193Z,500
2017-07-21T06:30:24.287Z,510
2017-07-21T06:31:24.193Z,525
2017-07-21T06:32:24.210Z,535
2017-07-21T06:33:24.200Z,535
2017-07-21T06:34:24.207Z,540
2017-07-21T06:35:24.022Z,550
2017-07-21T06:36:23.910Z,550
2017-07-21T06:37:24.219Z,575
2017-07-21T06:38:23.912Z,590
2017-07-21T06:39:24.239Z,590
2017-07-21T06:40:23.921Z,605
2017-07-21T06:41:24.232Z,625
2017-07-21T06:42:24.246Z,620
2017-07-21T06:43:23.929Z,615
2017-07-21T06:44:24.245Z,620
2017-07-21T06:45:23.942Z,620
2017-07-21T06:46:24.247Z,605
2017-07-21T06:47:24.252Z,585
2017-07-21T06:48:23.948Z,570
2017-07-21T06:49:24.262Z,545
2017-07-21T06:50:23.959Z,520
2017-07-21T06:51:24.363Z,495
2017-07-21T06:52:24.286Z,480
2017-07-21T06:53:23.971Z,465
2017-07-21T06:54:24.278Z,445
2017-07-21T06:55:24.278Z,440
2017-07-21T06:56:24.129Z,435
2017-07-21T06:57:24.325Z,435
2017-07-21T06:58:23.989Z,425
2017-07-21T06:59:23.989Z,430
2017-07-21T07:00:24.297Z,460
2017-07-21T07:01:24.301Z,700
2017-07-21T07:02:24.305Z,875
2017-07-21T07:03:24.309Z,840
2017-07-21T07:04:24.313Z,810
2017-07-21T07:05:24.324Z,755
2017-07-21T07:06:24.333Z,695
2017-07-21T07:07:24.323Z,685
2017-07-21T07:08:24.043Z,670
2017-07-21T07:09:24.053Z,660
2017-07-21T07:10:24.446Z,660
2017-07-21T07:11:23.422Z,685
2017-07-21T07:12:24.344Z,675
2017-07-21T07:13:24.352Z,670
2017-07-21T07:14:23.846Z,680
2017-07-21T07:15:24.462Z,670
2017-07-21T07:16:24.060Z,670
2017-07-21T07:17:24.066Z,695
2017-07-21T07:18:24.361Z,710
2017-07-21T07:19:24.385Z,705
2017-07-21T07:20:24.372Z,705
2017-07-21T07:21:24.376Z,670
2017-07-21T07:22:24.380Z,660
2017-07-21T07:23:24.389Z,630
2017-07-21T07:24:24.089Z,600
2017-07-21T07:25:24.091Z,590
2017-07-21T07:26:24.401Z,595
2017-07-21T07:27:24.402Z,585
2017-07-21T07:28:23.803Z,595
2017-07-21T07:29:24.409Z,590
2017-07-21T07:30:24.504Z,585
2017-07-21T07:31:24.410Z,585
2017-07-21T07:32:24.266Z,590
2017-07-21T07:33:24.118Z,595
2017-07-21T07:34:24.420Z,475
2017-07-21T07:35:24.424Z,330
2017-07-21T07:36:24.275Z,260
2017-07-21T07:37:24.120Z,245
2017-07-21T07:38:24.222Z,240
2017-07-21T07:39:23.820Z,230
2017-07-21T07:40:23.927Z,230
2017-07-21T07:41:24.588Z,225
2017-07-21T07:42:24.140Z,225
2017-07-21T07:43:24.442Z,220
2017-07-21T07:44:24.442Z,215
2017-07-21T07:45:24.567Z,210
2017-07-21T07:46:24.462Z,210
2017-07-21T07:47:24.454Z,205
2017-07-21T07:48:24.459Z,200
2017-07-21T07:49:24.462Z,200
2017-07-21T07:50:24.469Z,200
2017-07-21T07:51:24.475Z,200
2017-07-21T07:52:24.469Z,195
2017-07-21T07:53:24.472Z,195
2017-07-21T07:54:24.484Z,190
2017-07-21T07:55:24.571Z,185
2017-07-21T07:56:24.479Z,180
2017-07-21T07:57:24.468Z,175
2017-07-21T07:58:24.586Z,175
2017-07-21T07:59:24.480Z,170
2017-07-21T08:00:24.173Z,165
2017-07-21T08:01:24.587Z,160
2017-07-21T08:02:24.493Z,155
2017-07-21T08:03:24.185Z,155
2017-07-21T08:04:24.506Z,150
2017-07-21T08:05:24.483Z,145
2017-07-21T08:06:24.594Z,145
2017-07-21T08:07:24.501Z,145
2017-07-21T08:08:24.509Z,140
2017-07-21T08:09:24.505Z,140
2017-07-21T08:10:24.204Z,135
2017-07-21T08:11:24.309Z,135
2017-07-21T08:12:24.505Z,130
2017-07-21T08:13:24.514Z,130
2017-07-21T08:14:24.307Z,125
2017-07-21T08:15:24.509Z,125
2017-07-21T08:16:24.611Z,125
2017-07-21T08:17:24.050Z,120
2017-07-21T08:18:24.512Z,120
2017-07-21T08:19:24.315Z,120
2017-07-21T08:20:24.509Z,115
2017-07-21T08:21:24.219Z,115
2017-07-21T08:22:24.520Z,115
2017-07-21T08:23:24.526Z,115
2017-07-21T08:24:24.517Z,110
2017-07-21T08:25:24.523Z,105
2017-07-21T08:26:24.028Z,105
2017-07-21T08:27:24.620Z,105
2017-07-21T08:28:24.533Z,100
2017-07-21T08:29:24.685Z,100
2017-07-21T08:30:24.535Z,100
2017-07-21T08:31:24.523Z,100
2017-07-21T08:32:24.224Z,100
2017-07-21T08:33:24.638Z,95
2017-07-21T08:34:24.682Z,95
2017-07-21T08:35:24.529Z,95
2017-07-21T08:36:24.535Z,95
2017-07-21T08:37:24.224Z,95
2017-07-21T08:38:24.536Z,90
2017-07-21T08:39:24.545Z,90
2017-07-21T08:40:24.681Z,85
2017-07-21T08:41:24.547Z,85
2017-07-21T08:42:24.537Z,85
2017-07-21T08:43:24.545Z,85
2017-07-21T08:44:24.548Z,85
2017-07-21T08:45:24.646Z,85
2017-07-21T08:46:24.444Z,85
2017-07-21T08:47:24.538Z,85
2017-07-21T08:48:24.239Z,85
2017-07-21T08:49:24.238Z,80
2017-07-21T08:50:24.538Z,80
2017-07-21T08:51:24.553Z,80
2017-07-21T08:52:24.547Z,80
2017-07-21T08:53:24.545Z,80
2017-07-21T08:54:24.754Z,80
2017-07-21T08:55:24.347Z,80
2017-07-21T08:56:24.546Z,75
2017-07-21T08:57:24.545Z,75
2017-07-21T08:58:24.544Z,80
2017-07-21T08:59:24.546Z,75
2017-07-21T09:00:24.398Z,80
2017-07-21T09:01:24.245Z,80
2017-07-21T09:02:24.546Z,80
2017-07-21T09:03:24.548Z,80
2017-07-21T09:04:24.556Z,80
2017-07-21T09:05:24.259Z,80
2017-07-21T09:06:24.550Z,80
2017-07-21T09:07:24.245Z,80
2017-07-21T09:08:24.556Z,80
2017-07-21T09:09:24.251Z,80
2017-07-21T09:10:24.246Z,80
2017-07-21T09:11:24.699Z,80
2017-07-21T09:12:24.657Z,80
2017-07-21T09:13:24.556Z,80
2017-07-21T09:14:24.555Z,80
2017-07-21T09:15:24.556Z,80
2017-07-21T09:16:24.342Z,85
2017-07-21T09:17:24.347Z,85
2017-07-21T09:18:24.549Z,80
2017-07-21T09:19:24.241Z,80
2017-07-21T09:20:24.556Z,80
2017-07-21T09:21:24.246Z,80
2017-07-21T09:22:24.402Z,80
2017-07-21T09:23:24.657Z,85
2017-07-21T09:24:24.557Z,80
2017-07-21T09:25:24.559Z,85
2017-07-21T09:26:24.245Z,85
2017-07-21T09:27:24.346Z,80
2017-07-21T09:28:24.552Z,80
2017-07-21T09:29:24.663Z,80
2017-07-21T09:30:24.558Z,80
2017-07-21T09:31:24.246Z,80
2017-07-21T09:32:24.255Z,80
2017-07-21T09:33:24.661Z,80
2017-07-21T09:34:24.564Z,80
2017-07-21T09:35:24.260Z,80
2017-07-21T09:36:24.549Z,80
2017-07-21T09:37:24.252Z,75
2017-07-21T09:38:24.556Z,75
2017-07-21T09:39:24.561Z,75
2017-07-21T09:40:24.248Z,70
2017-07-21T09:41:24.557Z,70
2017-07-21T09:42:24.552Z,70
2017-07-21T09:43:23.944Z,70
2017-07-21T09:44:24.358Z,70
2017-07-21T09:45:24.708Z,70
2017-07-21T09:46:24.558Z,70
2017-07-21T09:47:24.561Z,70
2017-07-21T09:48:23.942Z,70
2017-07-21T09:49:24.254Z,70
2017-07-21T09:50:24.095Z,70
2017-07-21T09:51:24.250Z,70
2017-07-21T09:52:23.955Z,70
2017-07-21T09:53:24.555Z,65
2017-07-21T09:54:24.717Z,65
2017-07-21T09:55:24.577Z,65
2017-07-21T09:56:24.656Z,65
2017-07-21T09:57:23.950Z,65
2017-07-21T09:58:23.956Z,65
2017-07-21T09:59:24.557Z,65
2017-07-21T10:00:24.560Z,65
2017-07-21T10:01:24.553Z,70
2017-07-21T10:02:24.251Z,65
2017-07-21T10:03:24.661Z,65
2017-07-21T10:04:24.565Z,65
2017-07-21T10:05:24.562Z,65
2017-07-21T10:06:24.559Z,65
2017-07-21T10:07:24.047Z,65
2017-07-21T10:08:24.245Z,65
2017-07-21T10:09:24.564Z,65
2017-07-21T10:10:24.097Z,65
2017-07-21T10:11:24.551Z,65
2017-07-21T10:12:24.559Z,65
2017-07-21T10:13:24.560Z,65
2017-07-21T10:14:24.556Z,65
2017-07-21T10:15:24.819Z,60
2017-07-21T10:16:24.250Z,60
2017-07-21T10:17:24.257Z,60
2017-07-21T10:18:24.559Z,60
2017-07-21T10:19:24.552Z,60
2017-07-21T10:20:23.946Z,60
2017-07-21T10:21:24.564Z,60
2017-07-21T10:22:24.553Z,60
2017-07-21T10:23:24.559Z,60
2017-07-21T10:24:24.576Z,60
2017-07-21T10:25:24.359Z,60
2017-07-21T10:26:24.251Z,60
2017-07-21T10:27:24.256Z,60
2017-07-21T10:28:24.272Z,60
2017-07-21T10:29:24.253Z,55
2017-07-21T10:30:24.565Z,55
2017-07-21T10:31:24.557Z,55
2017-07-21T10:32:24.348Z,55
2017-07-21T10:33:24.246Z,55
2017-07-21T10:34:24.251Z,55
2017-07-21T10:35:25.186Z,55
2017-07-21T10:36:24.558Z,55
2017-07-21T10:37:24.402Z,55
2017-07-21T10:38:24.247Z,55
2017-07-21T10:39:24.565Z,55
2017-07-21T10:40:24.576Z,55
2017-07-21T10:41:24.255Z,55
2017-07-21T10:42:24.656Z,55
2017-07-21T10:43:24.561Z,55
2017-07-21T10:44:24.350Z,55
2017-07-21T10:45:23.949Z,55
2017-07-21T10:46:24.565Z,55
2017-07-21T10:47:24.662Z,55
2017-07-21T10:48:24.551Z,55
2017-07-21T10:49:24.556Z,55
2017-07-21T10:50:24.361Z,55
2017-07-21T10:51:24.659Z,55
2017-07-21T10:52:24.250Z,55
2017-07-21T10:53:23.949Z,55
2017-07-21T10:54:24.252Z,55
2017-07-21T10:55:24.354Z,55
2017-07-21T10:56:24.556Z,55
2017-07-21T10:57:24.659Z,55
2017-07-21T10:58:24.252Z,55
2017-07-21T10:59:24.558Z,55
2017-07-21T11:00:24.649Z,55
2017-07-21T11:01:24.556Z,55
2017-07-21T11:02:24.346Z,55
2017-07-21T11:03:24.250Z,55
2017-07-21T11:04:24.555Z,55
2017-07-21T11:05:24.571Z,55
2017-07-21T11:06:23.950Z,55
2017-07-21T11:07:23.978Z,55
2017-07-21T11:08:24.251Z,55
2017-07-21T11:09:24.559Z,55
2017-07-21T11:10:24.255Z,55
2017-07-21T11:11:24.651Z,55
2017-07-21T11:12:24.662Z,55
2017-07-21T11:13:24.569Z,50
2017-07-21T11:14:24.577Z,50
2017-07-21T11:15:24.653Z,50
2017-07-21T11:16:24.555Z,50
2017-07-21T11:17:24.578Z,50
2017-07-21T11:18:24.250Z,50
2017-07-21T11:19:24.555Z,50
2017-07-21T11:20:24.250Z,50
2017-07-21T11:21:24.543Z,50
2017-07-21T11:22:24.546Z,50
2017-07-21T11:23:24.553Z,50
2017-07-21T11:24:24.249Z,50
2017-07-21T11:25:24.657Z,55
2017-07-21T11:26:24.249Z,55
2017-07-21T11:27:24.656Z,55
2017-07-21T11:28:24.558Z,55
2017-07-21T11:29:24.247Z,55
2017-07-21T11:30:24.554Z,55
2017-07-21T11:31:24.701Z,55
2017-07-21T11:32:24.552Z,55
2017-07-21T11:33:24.552Z,55
2017-07-21T11:34:23.944Z,55
2017-07-21T11:35:23.637Z,55
2017-07-21T11:36:24.260Z,55
2017-07-21T11:37:24.656Z,60
2017-07-21T11:38:24.554Z,60
2017-07-21T11:39:24.547Z,60
2017-07-21T11:40:24.551Z,60
2017-07-21T11:41:24.245Z,60
2017-07-21T11:42:24.244Z,60
2017-07-21T11:43:24.246Z,65
2017-07-21T11:44:24.556Z,60
2017-07-21T11:45:24.544Z,60
2017-07-21T11:46:23.633Z,65
2017-07-21T11:47:24.652Z,65
2017-07-21T11:48:24.248Z,70
2017-07-21T11:49:24.249Z,65
2017-07-21T11:50:24.251Z,65
2017-07-21T11:51:24.242Z,65
2017-07-21T11:52:24.244Z,65
2017-07-21T11:53:24.244Z,65
2017-07-21T11:54:24.245Z,65
2017-07-21T11:55:24.098Z,65
2017-07-21T11:56:24.558Z,65
2017-07-21T11:57:24.248Z,65
2017-07-21T11:58:24.342Z,70
2017-07-21T11:59:24.248Z,70
2017-07-21T12:00:24.650Z,75
2017-07-21T12:01:24.260Z,75
2017-07-21T12:02:24.549Z,80
2017-07-21T12:03:24.550Z,80
2017-07-21T12:04:24.250Z,80
2017-07-21T12:05:24.546Z,75
2017-07-21T12:06:24.645Z,75
2017-07-21T12:07:24.558Z,75
2017-07-21T12:08:24.635Z,75
2017-07-21T12:09:24.233Z,70
2017-07-21T12:10:24.541Z,75
2017-07-21T12:11:24.232Z,80
2017-07-21T12:12:24.544Z,80
2017-07-21T12:13:24.544Z,85
2017-07-21T12:14:24.544Z,80
2017-07-21T12:15:24.535Z,80
2017-07-21T12:16:24.540Z,85
2017-07-21T12:17:24.694Z,90
2017-07-21T12:18:23.931Z,85
2017-07-21T12:19:24.237Z,90
2017-07-21T12:20:24.030Z,85
2017-07-21T12:21:24.547Z,85
2017-07-21T12:22:24.541Z,80
2017-07-21T12:23:24.559Z,85
2017-07-21T12:24:24.235Z,80
2017-07-21T12:25:24.542Z,80
2017-07-21T12:26:24.544Z,80
2017-07-21T12:27:24.234Z,75
2017-07-21T12:28:24.443Z,75
2017-07-21T12:29:23.925Z,75
2017-07-21T12:30:24.542Z,75
2017-07-21T12:31:24.543Z,80
2017-07-21T12:32:24.539Z,85
2017-07-21T12:33:24.541Z,90
2017-07-21T12:34:24.392Z,95
2017-07-21T12:35:24.236Z,100
2017-07-21T12:36:24.539Z,105
2017-07-21T12:37:24.554Z,105
2017-07-21T12:38:24.545Z,105
2017-07-21T12:39:24.552Z,100
2017-07-21T12:40:23.939Z,100
2017-07-21T12:41:24.548Z,95
2017-07-21T12:42:24.543Z,90
2017-07-21T12:43:24.240Z,85
2017-07-21T12:44:24.237Z,85
2017-07-21T12:45:23.941Z,80
2017-07-21T12:46:24.542Z,80
2017-07-21T12:47:23.934Z,75
2017-07-21T12:48:24.345Z,75
2017-07-21T12:49:24.239Z,75
2017-07-21T12:50:24.559Z,75
2017-07-21T12:51:23.942Z,70
2017-07-21T12:52:24.244Z,70
2017-07-21T12:53:24.394Z,65
2017-07-21T12:54:24.340Z,70
2017-07-21T12:55:24.655Z,70
2017-07-21T12:56:23.937Z,70
2017-07-21T12:57:23.932Z,70
2017-07-21T12:58:23.938Z,70
2017-07-21T12:59:23.779Z,75
2017-07-21T13:00:24.241Z,75
2017-07-21T13:01:23.937Z,75
2017-07-21T13:02:24.548Z,75
2017-07-21T13:03:24.552Z,75
2017-07-21T13:04:24.704Z,70
2017-07-21T13:05:24.260Z,70
2017-07-21T13:06:24.543Z,70
2017-07-21T13:07:24.548Z,65
2017-07-21T13:08:23.944Z,65
2017-07-21T13:09:24.804Z,65
2017-07-21T13:10:23.940Z,65
2017-07-21T13:11:24.260Z,65
2017-07-21T13:12:24.555Z,65
2017-07-21T13:13:23.750Z,60
2017-07-21T13:14:24.250Z,60
2017-07-21T13:15:24.343Z,60
2017-07-21T13:16:24.659Z,60
2017-07-21T13:17:23.973Z,65
2017-07-21T13:18:24.658Z,65
2017-07-21T13:19:24.247Z,65
2017-07-21T13:20:24.252Z,65
2017-07-21T13:21:23.946Z,70
2017-07-21T13:22:24.551Z,65
2017-07-21T13:23:24.556Z,65
2017-07-21T13:24:24.555Z,65
2017-07-21T13:25:24.663Z,65
2017-07-21T13:26:24.735Z,65
2017-07-21T13:27:24.266Z,65
2017-07-21T13:28:24.560Z,65
2017-07-21T13:29:24.249Z,60
2017-07-21T13:30:24.562Z,65
2017-07-21T13:31:24.721Z,60
2017-07-21T13:32:24.563Z,60
2017-07-21T13:33:24.255Z,60
2017-07-21T13:34:24.262Z,60
2017-07-21T13:35:24.658Z,55
2017-07-21T13:36:24.718Z,55
2017-07-21T13:37:24.257Z,55
2017-07-21T13:38:24.410Z,50
2017-07-21T13:39:23.948Z,50
2017-07-21T13:40:24.560Z,50
2017-07-21T13:41:24.043Z,50
2017-07-21T13:42:24.247Z,50
2017-07-21T13:43:24.554Z,50
2017-07-21T13:44:24.557Z,50
2017-07-21T13:45:24.262Z,45
2017-07-21T13:46:24.415Z,45
2017-07-21T13:47:24.565Z,45
2017-07-21T13:48:23.952Z,45
2017-07-21T13:49:24.558Z,45
2017-07-21T13:50:24.561Z,45
2017-07-21T13:51:24.563Z,45
2017-07-21T13:52:24.368Z,50
2017-07-21T13:53:24.405Z,50
2017-07-21T13:54:24.255Z,50
2017-07-21T13:55:23.958Z,50
2017-07-21T13:56:24.371Z,50
2017-07-21T13:57:24.264Z,50
2017-07-21T13:58:24.327Z,50
2017-07-21T13:59:24.365Z,50
2017-07-21T14:00:24.254Z,50
2017-07-21T14:01:24.659Z,55
2017-07-21T14:02:24.362Z,55
2017-07-21T14:03:24.263Z,55
2017-07-21T14:04:24.261Z,50
2017-07-21T14:05:24.359Z,55
2017-07-21T14:06:24.260Z,55
2017-07-21T14:07:24.264Z,55
2017-07-21T14:08:24.563Z,55
2017-07-21T14:09:24.712Z,50
2017-07-21T14:10:24.364Z,50
2017-07-21T14:11:24.258Z,50
2017-07-21T14:12:24.264Z,50
2017-07-21T14:13:24.460Z,50
2017-07-21T14:14:24.689Z,50
2017-07-21T14:15:24.565Z,50
2017-07-21T14:16:24.266Z,50